Mass Start - EYOC 2012 Lac de Vassivière (87) - E

Date : 01/07/2012

Place Nom Licence Catégorie Club Temps CN à J-60 Points Différence Nouveau CN
1 GENNARO Mathis 22689 H12 3811RA 0:14:40 3251 2830 -421 3418
2 HABERKORN Guilhem 11395 H12 2105BO 0:14:49 3033 2801 -232 3111
3 LEDUC Paul 21124 H12 1905LI 0:15:40 2952 2649 -303 2924
4 DAUPHIN Hugo 20296 H12 4708AQ 0:15:43 2536 2641 +105 2650
5 LAVILLE Adrien 18412 H12 1307PR 0:16:22 2801 2536 -265 2849
6 VUITTON Julien 18843 H12 6911RA 0:16:24 3400 2531 -869 3323
7 MAZY Pierre-louis 21329 H12 5907NO 0:17:57 1595 2312 +717 2249
8 PANNIER Axel 19099 H12 7807IF 0:17:59 2489 2308 -181 2568
9 BASSET Basile 23577 H10 6911RA 0:18:23 2144 2258 +114 2263
10 DUDOIGNON Marine 17953 D12 2604RA 0:18:31 1959 2241 +282 2105
11 RADONDY Thomas 25199 H10 5907NO 0:18:51 2283 2202 -81 2262
12 FERRAND Elise 25011 D12 4203RA 0:18:52 1833 2200 +367 2143
13 DELENNE Tommy 18249 H12 1307PR 0:18:53 2616 2198 -418 2630
14 CAVARROC Amandine 19656 D12 1104LR 0:18:56 2359 2192 -167 2327
15 LEYZAT Valentin 25902 H10 8702LI 0:20:11 1461 2056 +595 1513
16 LAMOR Louis 23246 H12 1705PC 0:20:23 1601 2036 +435 1791
17 DANNECKER Victor 21442 H12 3913FC 0:20:30 1974 2024 +50 1960
18 DANNECKER Elliot 21441 H10 3913FC 0:22:25 1732 1851 +119 1785
19 MARLIAC Solène 24984 D12 4203RA 0:22:51 536 1816 +1280 1661
20 DION Laurent 20514 H12 4708AQ 0:22:57 2033 1808 -225 1988
21 GENIN Claire 22365 D12 3318AQ 0:24:06 1970 1722 -248 1843
22 DREANO Valentin 25106 H12 9105IF 0:26:59 2015 1538 -477 1980
23 DROIN Aurelie 21210 D12 4201RA 0:27:06 1601 1531 -70 1814
24 DA ROCHA Inès 25977 D12 3318AQ 0:27:08 0 (2000) 1529 1246
25 PAULY Lilou 21041 D12 1705PC 0:28:09 2152 1474 -678 2112
26 PICHARD Romain 21267 H10 6911RA 0:32:28 1184 1278 +94 1628
27 PERRIN Simon 18119 H10 4201RA 0:32:40 1571 1270 -301 1629
28 CLAVEL Maella 22805 D12 5907NO 0:32:46 1228 1267 +39 1146
29 FRANTZ Francoise 6886 D65 2904BR 0:32:49 3757 1265 -2492 3757
30 ROLLET Marie-Madeleine 2413 D65 5415LO 0:34:00 2264 1221 -1043 2662
31 GROSJEAN A-Marie 12059 D70 6913RA 0:34:34 2749 1201 -1548 2808
32 ANGLADE Léane 22256 D12 5604BR 0:37:07 1460 1118 -342 1460
33 DENIS Martine 12377 D65 9307IF 0:39:31 2790 1050 -1740 2756
34 KIEFFER Mireille 2680 D65 2101BO 0:39:38 2687 1047 -1640 2716
35 LUDEWIG-JAMES Carol 15894 D70 5907NO 0:41:31 2207 1000 -1207 2136
36 TREMOULET Theophile 20233 H10 4601MP 0:45:40 1497 909 -588 1721
37 PAULY Titouan 22715 H10 1705PC 0:51:50 1562 801 -761 1684
38 ARNAULT Gaby 24586 H10 7905PC 0:51:53 (2000) 800 936
39 LAVAL Philippe 23070 H10 8106MP 0:52:14 753 795 +42 1092
40 LAVAL Guillaume 23071 H10 8106MP 0:52:14 0 (2000) 795 683
PIVAUDRAN Gabriel 24926 H10 4601MP pm 1416 0 1448
LAURENT Alexis 17084 H10 3705CE pm 1215 0 1361
LAVAL Colette 25598 D60 8106MP pm 718 0 825